Time;durP1;ratioP1;P1;durP2;ratioP2;P2;SDS_P1;SDS_P2;PMS_P1;PMS_P2;Temp;Humidity;BMP_temperature;BMP_pressure;BME280_temperature;BME280_humidity;BME280_pressure;Samples;Min_cycle;Max_cycle;Signal;HPM_P1;HPM_P2
2021/06/26 00:00:18;;;;;;;11.00;8.35;;;;;;;20.61;52.40;101509.25;6152299;23;20359;-81
2021/06/26 00:02:43;;;;;;;10.73;7.70;;;;;;;20.59;52.82;101514.06;6152816;23;20060;-81
2021/06/26 00:05:10;;;;;;;9.55;7.07;;;;;;;20.61;52.65;101513.88;6126038;23;20426;-81
2021/06/26 00:07:35;;;;;;;11.40;7.68;;;;;;;20.55;53.09;101512.72;6125817;23;20120;-81
2021/06/26 00:10:01;;;;;;;10.50;7.82;;;;;;;20.62;53.24;101515.56;6152396;23;20032;-81
2021/06/26 00:12:26;;;;;;;10.10;7.68;;;;;;;20.58;53.95;101509.63;6151885;23;20032;-81
2021/06/26 00:14:52;;;;;;;8.60;7.70;;;;;;;20.56;53.72;101508.09;6152220;23;20010;-81
2021/06/26 00:17:18;;;;;;;10.35;7.72;;;;;;;20.64;53.72;101513.53;6152371;23;20020;-81
2021/06/26 00:19:43;;;;;;;10.20;7.35;;;;;;;20.55;53.51;101506.41;6125928;23;20033;-81
2021/06/26 00:22:08;;;;;;;9.90;7.80;;;;;;;20.42;53.88;101504.28;6152246;23;20020;-81
2021/06/26 00:24:34;;;;;;;13.13;8.13;;;;;;;20.36;54.35;101505.00;6151971;23;20009;-81
2021/06/26 00:27:00;;;;;;;9.20;8.15;;;;;;;20.37;54.56;101509.41;6152164;23;20013;-81
2021/06/26 00:29:25;;;;;;;8.65;7.70;;;;;;;20.41;54.11;101506.13;6152224;23;20189;-81
2021/06/26 00:31:50;;;;;;;9.85;7.53;;;;;;;20.38;55.06;101502.91;6151925;23;20366;-81
2021/06/26 00:34:16;;;;;;;8.60;7.72;;;;;;;20.38;55.09;101501.03;6152410;23;20076;-81
2021/06/26 00:36:41;;;;;;;9.82;7.85;;;;;;;20.42;54.80;101504.28;6125861;23;20010;-81
2021/06/26 00:39:07;;;;;;;8.20;6.65;;;;;;;20.44;55.03;101508.50;6152334;23;20002;-81
2021/06/26 00:41:32;;;;;;;13.10;8.27;;;;;;;20.45;54.95;101506.63;6152608;23;20068;-81
2021/06/26 00:43:58;;;;;;;10.07;7.75;;;;;;;20.40;55.27;101514.50;6152267;23;20009;-81
2021/06/26 00:46:23;;;;;;;9.45;8.30;;;;;;;20.39;55.40;101518.28;6125807;23;20012;-81
2021/06/26 00:48:49;;;;;;;9.68;8.65;;;;;;;20.37;55.38;101510.25;6152103;23;20334;-81
2021/06/26 00:51:15;;;;;;;10.57;8.18;;;;;;;20.50;55.04;101511.53;6152541;23;20371;-81
2021/06/26 00:53:40;;;;;;;9.60;7.88;;;;;;;20.46;55.54;101510.22;6152195;23;20021;-81
2021/06/26 00:56:08;;;;;;;9.45;7.88;;;;;;;20.37;55.69;101525.81;6126014;23;20016;-81
2021/06/26 00:58:34;;;;;;;9.80;8.52;;;;;;;20.31;56.08;101521.06;6152751;23;20009;-81
2021/06/26 01:01:00;;;;;;;10.68;8.40;;;;;;;20.31;56.49;101518.34;6126091;23;20006;-81
2021/06/26 01:03:25;;;;;;;8.38;7.50;;;;;;;20.34;56.51;101524.28;6125416;23;20024;-81
2021/06/26 01:05:51;;;;;;;9.75;8.18;;;;;;;20.28;56.18;101532.34;6125530;23;20448;-81
2021/06/26 01:08:17;;;;;;;13.60;9.20;;;;;;;20.22;56.56;101531.19;6152058;23;20528;-81
2021/06/26 01:10:43;;;;;;;9.85;8.57;;;;;;;20.26;56.19;101526.22;6152110;23;20009;-81
2021/06/26 01:13:08;;;;;;;8.98;7.90;;;;;;;20.15;56.38;101530.22;6151799;23;20343;-81
2021/06/26 01:15:34;;;;;;;11.07;8.25;;;;;;;20.09;56.20;101529.06;6151898;23;20005;-81
2021/06/26 01:17:59;;;;;;;8.98;6.85;;;;;;;20.08;56.37;101532.81;6152067;23;20009;-81
2021/06/26 01:20:25;;;;;;;9.18;7.93;;;;;;;20.06;56.44;101534.03;6125517;23;20144;-81
2021/06/26 01:22:57;;;;;;;9.30;7.68;;;;;;;20.05;56.54;101530.44;6151824;23;20012;-81
2021/06/26 01:25:23;;;;;;;11.65;8.25;;;;;;;20.00;56.57;101523.81;6151784;23;20014;-81
2021/06/26 01:27:50;;;;;;;9.45;7.60;;;;;;;20.11;56.28;101526.13;6151850;23;20005;-81
2021/06/26 01:30:18;;;;;;;11.07;8.30;;;;;;;19.98;57.14;101527.56;6152276;23;20014;-81
2021/06/26 01:32:44;;;;;;;11.32;8.20;;;;;;;20.16;56.87;101532.75;6151590;23;20052;-81
2021/06/26 01:35:10;;;;;;;12.13;8.93;;;;;;;20.04;57.08;101525.16;6151041;23;20006;-81
2021/06/26 01:37:39;;;;;;;9.60;8.32;;;;;;;20.00;56.92;101527.38;6152047;23;20009;-81
2021/06/26 01:40:05;;;;;;;12.35;8.80;;;;;;;20.06;56.67;101525.84;6153635;23;20017;-81
2021/06/26 01:42:31;;;;;;;9.80;8.73;;;;;;;20.08;56.67;101527.34;6153878;23;20005;-81
2021/06/26 01:44:56;;;;;;;12.48;7.68;;;;;;;20.12;56.76;101528.69;6153401;23;20012;-81
2021/06/26 01:47:21;;;;;;;10.57;7.60;;;;;;;20.08;56.64;101521.91;6153407;23;20092;-81
2021/06/26 01:49:50;;;;;;;9.10;7.40;;;;;;;20.02;57.30;101524.47;6153026;23;20520;-88
2021/06/26 01:52:15;;;;;;;8.70;7.80;;;;;;;19.97;57.64;101517.66;6153284;23;20013;-81
2021/06/26 01:54:41;;;;;;;10.93;8.75;;;;;;;19.96;57.37;101531.50;6127145;23;20409;-81
2021/06/26 01:57:10;;;;;;;11.65;8.43;;;;;;;19.92;57.66;101531.00;6153546;23;20006;-82
2021/06/26 01:59:38;;;;;;;9.70;8.70;;;;;;;19.95;57.36;101527.06;6152510;23;20043;-82
2021/06/26 02:02:05;;;;;;;11.82;8.45;;;;;;;20.01;57.38;101530.97;6152807;23;20014;-82
2021/06/26 02:04:30;;;;;;;9.95;8.57;;;;;;;19.96;57.76;101534.25;6151521;23;20020;-82
2021/06/26 02:06:55;;;;;;;8.85;7.95;;;;;;;19.98;57.71;101532.16;6125684;23;19998;-82
2021/06/26 02:09:21;;;;;;;10.20;8.60;;;;;;;19.91;58.06;101533.91;6151537;23;20459;-82
2021/06/26 02:11:46;;;;;;;8.40;7.60;;;;;;;19.86;58.30;101531.72;6124866;23;20005;-82
2021/06/26 02:14:12;;;;;;;14.63;8.00;;;;;;;19.88;58.29;101534.28;6151529;23;20016;-82
2021/06/26 02:16:38;;;;;;;9.98;8.98;;;;;;;19.78;58.97;101526.31;6125227;23;20017;-82
2021/06/26 02:19:04;;;;;;;12.82;9.57;;;;;;;19.71;58.99;101531.63;6153150;23;20009;-82
2021/06/26 02:21:29;;;;;;;14.55;9.23;;;;;;;19.72;58.99;101519.66;6153347;23;20032;-82
2021/06/26 02:23:55;;;;;;;10.95;9.73;;;;;;;19.76;58.73;101536.53;6152810;23;20013;-82
2021/06/26 02:26:20;;;;;;;12.35;9.70;;;;;;;19.73;59.03;101526.81;6151738;23;20017;-82
2021/06/26 02:28:45;;;;;;;11.52;10.10;;;;;;;19.79;58.79;101525.25;6152863;23;20009;-82
2021/06/26 02:31:11;;;;;;;12.15;8.43;;;;;;;19.87;58.23;101527.97;6152965;23;20009;-82
2021/06/26 02:33:36;;;;;;;10.07;8.93;;;;;;;19.81;58.62;101531.41;6126389;23;20092;-82
2021/06/26 02:36:01;;;;;;;9.13;7.60;;;;;;;19.90;58.88;101533.06;6153004;23;20100;-82
2021/06/26 02:38:27;;;;;;;11.15;8.52;;;;;;;19.91;58.61;101532.03;6152980;23;20438;-82
2021/06/26 02:40:52;;;;;;;10.02;7.45;;;;;;;19.87;58.99;101527.97;6153068;23;20009;-82
2021/06/26 02:43:19;;;;;;;10.13;7.90;;;;;;;19.81;58.95;101530.56;6152756;23;20425;-82
2021/06/26 02:45:46;;;;;;;9.63;8.65;;;;;;;19.79;59.18;101532.59;6126407;23;20095;-79
2021/06/26 02:48:12;;;;;;;9.50;8.50;;;;;;;19.78;59.38;101525.47;6152871;23;20009;-79
2021/06/26 02:50:37;;;;;;;9.32;8.40;;;;;;;19.76;58.97;101524.78;6126859;23;20068;-79
2021/06/26 02:53:02;;;;;;;9.52;8.02;;;;;;;19.73;59.80;101523.25;6152967;23;20005;-79
2021/06/26 02:55:28;;;;;;;8.68;7.57;;;;;;;19.82;59.45;101527.63;6153050;23;20037;-80
2021/06/26 02:57:53;;;;;;;8.13;7.20;;;;;;;19.82;59.35;101524.06;6126560;23;20336;-79
2021/06/26 03:00:20;;;;;;;10.40;7.63;;;;;;;19.78;59.76;101533.66;6152897;23;20009;-79
2021/06/26 03:02:45;;;;;;;11.23;8.20;;;;;;;19.80;59.65;101532.41;6153114;23;20508;-80
2021/06/26 03:05:11;;;;;;;12.82;8.48;;;;;;;19.77;59.55;101531.94;6152863;23;20084;-79
2021/06/26 03:07:36;;;;;;;10.15;7.82;;;;;;;19.83;59.82;101536.66;6153036;23;20005;-79
2021/06/26 03:10:03;;;;;;;8.60;7.55;;;;;;;19.78;59.68;101531.75;6152738;23;20009;-80
2021/06/26 03:12:29;;;;;;;10.13;8.55;;;;;;;19.69;59.73;101533.66;6126064;23;20005;-79
2021/06/26 03:14:54;;;;;;;9.70;8.68;;;;;;;19.62;60.10;101539.97;6152219;23;20006;-80
2021/06/26 03:17:19;;;;;;;11.85;7.82;;;;;;;19.73;59.67;101528.69;6152364;23;20084;-80
2021/06/26 03:19:45;;;;;;;8.65;7.85;;;;;;;19.72;59.48;101527.84;6152996;23;20100;-80
2021/06/26 03:22:10;;;;;;;8.30;7.47;;;;;;;19.73;59.54;101524.09;6152924;23;20009;-79
2021/06/26 03:24:35;;;;;;;8.90;7.57;;;;;;;19.67;59.39;101526.69;6152155;23;20085;-80
2021/06/26 03:27:01;;;;;;;11.40;9.25;;;;;;;19.57;60.14;101518.66;6126044;23;20013;-80
2021/06/26 03:29:26;;;;;;;10.63;8.45;;;;;;;19.71;60.01;101526.16;6152231;23;20434;-79
2021/06/26 03:31:51;;;;;;;9.70;8.68;;;;;;;19.78;59.41;101526.31;6152677;23;20011;-79
2021/06/26 03:34:17;;;;;;;12.25;8.38;;;;;;;19.85;59.56;101531.91;6126045;23;20005;-79
2021/06/26 03:36:42;;;;;;;11.00;7.70;;;;;;;19.89;59.31;101527.78;6152429;23;20060;-80
2021/06/26 03:39:08;;;;;;;13.15;8.57;;;;;;;19.83;59.74;101523.03;6152268;23;20037;-80
2021/06/26 03:41:33;;;;;;;10.65;7.60;;;;;;;19.89;60.07;101535.97;6152630;23;20016;-80
2021/06/26 03:44:00;;;;;;;9.52;7.78;;;;;;;19.86;60.73;101531.72;6152137;23;20009;-79
2021/06/26 03:46:26;;;;;;;11.30;8.38;;;;;;;19.83;60.76;101533.94;6152200;23;20629;-79
2021/06/26 03:48:52;;;;;;;12.18;8.63;;;;;;;19.77;60.82;101535.50;6152229;23;20037;-80
2021/06/26 03:51:17;;;;;;;11.70;7.97;;;;;;;19.80;60.84;101543.34;6125779;23;20492;-79
2021/06/26 03:53:42;;;;;;;9.18;8.27;;;;;;;19.76;61.26;101541.16;6125809;23;20499;-79
2021/06/26 03:56:08;;;;;;;9.52;8.63;;;;;;;19.81;61.44;101542.31;6152145;23;20005;-79
2021/06/26 03:58:33;;;;;;;9.48;8.50;;;;;;;19.87;60.68;101543.50;6152007;23;20453;-79
2021/06/26 04:00:59;;;;;;;8.63;7.82;;;;;;;19.94;60.47;101534.41;6125676;23;20076;-80
2021/06/26 04:03:24;;;;;;;8.27;7.47;;;;;;;19.97;60.76;101535.94;6151916;23;20551;-79
2021/06/26 04:05:50;;;;;;;8.50;7.60;;;;;;;19.94;61.38;101550.78;6125961;23;20005;-79
2021/06/26 04:08:15;;;;;;;12.30;7.85;;;;;;;19.99;61.68;101547.53;6151823;23;20013;-80
2021/06/26 04:10:43;;;;;;;8.90;7.57;;;;;;;20.04;61.40;101547.84;6152205;23;20068;-80
2021/06/26 04:13:08;;;;;;;8.30;7.43;;;;;;;19.99;61.51;101542.09;6152383;23;20394;-80
2021/06/26 04:15:34;;;;;;;8.48;7.07;;;;;;;19.96;61.56;101548.75;6125338;23;20009;-80
2021/06/26 04:18:00;;;;;;;8.63;7.68;;;;;;;19.96;61.90;101539.72;6152023;23;20540;-80
2021/06/26 04:20:25;;;;;;;8.45;7.43;;;;;;;19.92;62.15;101543.81;6152106;23;20105;-80
2021/06/26 04:22:51;;;;;;;9.00;8.10;;;;;;;20.03;61.73;101548.88;6152276;23;20009;-80
2021/06/26 04:25:17;;;;;;;9.23;8.32;;;;;;;20.11;61.17;101556.16;6151834;23;20029;-80
2021/06/26 04:27:43;;;;;;;9.70;7.85;;;;;;;20.06;61.43;101555.88;6125398;23;20025;-79
2021/06/26 04:30:10;;;;;;;11.38;8.80;;;;;;;20.09;61.47;101550.91;6125499;23;20009;-80
2021/06/26 04:32:38;;;;;;;8.52;7.63;;;;;;;20.18;60.73;101555.28;6125442;23;20014;-79
2021/06/26 04:35:09;;;;;;;10.20;8.50;;;;;;;20.15;61.51;101557.53;6151883;23;20009;-79
2021/06/26 04:37:34;;;;;;;8.45;7.55;;;;;;;20.19;60.95;101548.78;6152408;23;20009;-80
2021/06/26 04:40:00;;;;;;;10.02;8.90;;;;;;;20.10;61.15;101549.84;6152252;23;20084;-80
2021/06/26 04:42:25;;;;;;;10.85;9.07;;;;;;;20.27;60.28;101560.72;6152473;23;20426;-80
2021/06/26 04:44:51;;;;;;;12.50;9.32;;;;;;;20.27;59.47;101557.97;6151991;23;20424;-80
2021/06/26 04:47:16;;;;;;;11.18;10.05;;;;;;;20.24;59.45;101558.34;6151971;23;20068;-80
2021/06/26 04:49:41;;;;;;;12.68;9.50;;;;;;;20.27;59.27;101561.56;6151634;23;20009;-80
2021/06/26 04:52:08;;;;;;;12.95;11.68;;;;;;;20.27;58.48;101557.97;6125423;23;20055;-79
2021/06/26 04:54:33;;;;;;;14.15;10.85;;;;;;;20.38;57.97;101560.28;6152161;23;20378;-79
2021/06/26 04:56:59;;;;;;;14.75;11.90;;;;;;;20.40;57.85;101552.75;6152527;23;20009;-80
2021/06/26 04:59:24;;;;;;;12.57;10.65;;;;;;;20.37;57.36;101559.44;6151802;23;20012;-79
2021/06/26 05:01:49;;;;;;;18.30;11.38;;;;;;;20.38;57.08;101560.28;6151905;23;20390;-79
2021/06/26 05:04:15;;;;;;;15.18;10.98;;;;;;;20.40;56.99;101561.81;6151986;23;20009;-79
2021/06/26 05:06:40;;;;;;;11.77;10.68;;;;;;;20.47;56.91;101564.66;6125469;23;20013;-80
2021/06/26 05:09:06;;;;;;;14.75;11.52;;;;;;;20.49;56.41;101581.75;6152161;23;20314;-80
2021/06/26 05:11:31;;;;;;;12.88;11.68;;;;;;;20.51;55.66;101571.50;6151353;23;20080;-80
2021/06/26 05:13:56;;;;;;;12.70;11.35;;;;;;;20.58;55.56;101580.69;6151522;23;20005;-80
2021/06/26 05:16:22;;;;;;;14.55;11.13;;;;;;;20.62;54.43;101571.09;6126383;23;20028;-80
2021/06/26 05:18:47;;;;;;;13.38;11.73;;;;;;;20.57;56.20;101570.81;6153741;23;20005;-79
2021/06/26 05:21:13;;;;;;;12.70;11.30;;;;;;;20.63;54.64;101563.72;6153786;23;20089;-79
2021/06/26 05:23:38;;;;;;;18.20;10.75;;;;;;;20.68;52.07;101574.13;6153851;23;20379;-80
2021/06/26 05:26:03;;;;;;;13.23;11.25;;;;;;;20.74;51.96;101570.66;6153356;23;20037;-79
2021/06/26 05:28:29;;;;;;;12.38;10.95;;;;;;;20.72;52.39;101579.03;6153769;23;20061;-80
2021/06/26 05:30:54;;;;;;;13.77;11.45;;;;;;;20.70;53.25;101575.66;6153897;23;20088;-79
2021/06/26 05:33:20;;;;;;;11.73;9.75;;;;;;;20.75;52.54;101569.63;6153564;23;20434;-80
2021/06/26 05:35:46;;;;;;;13.20;10.25;;;;;;;20.78;53.48;101574.72;6126536;23;20013;-79
2021/06/26 05:38:12;;;;;;;15.02;11.05;;;;;;;20.89;51.44;101577.03;6153524;23;20032;-80
2021/06/26 05:40:37;;;;;;;16.63;10.02;;;;;;;20.94;50.52;101581.97;6153507;23;20009;-80
2021/06/26 05:43:04;;;;;;;13.60;10.50;;;;;;;20.91;51.65;101580.47;6154075;23;20488;-80
2021/06/26 05:45:29;;;;;;;14.43;11.35;;;;;;;21.04;53.10;101579.84;6126876;23;20005;-79
2021/06/26 05:47:55;;;;;;;17.50;11.38;;;;;;;21.09;50.79;101583.72;6153656;23;20096;-79
2021/06/26 05:50:20;;;;;;;13.00;11.55;;;;;;;21.14;50.34;101582.31;6153254;23;20014;-80
2021/06/26 05:52:54;;;;;;;14.95;11.35;;;;;;;21.08;50.37;101579.25;6127078;23;20031;-80
2021/06/26 05:55:20;;;;;;;16.48;11.57;;;;;;;21.02;49.97;101580.00;6128251;23;20013;-82
2021/06/26 05:57:45;;;;;;;19.27;12.43;;;;;;;21.10;48.72;101588.16;6153398;23;20644;-82
2021/06/26 06:00:13;;;;;;;12.95;10.35;;;;;;;21.17;48.72;101585.50;6127271;23;20009;-82
2021/06/26 06:02:38;;;;;;;14.80;10.68;;;;;;;21.11;49.20;101584.38;6153353;23;20010;-82
2021/06/26 06:05:04;;;;;;;14.60;11.40;;;;;;;21.21;49.26;101577.78;6157250;23;20493;-80
2021/06/26 06:07:30;;;;;;;14.27;12.02;;;;;;;21.28;49.33;101579.59;6154290;23;20005;-79
2021/06/26 06:09:55;;;;;;;16.48;12.52;;;;;;;21.28;48.95;101579.59;6153048;23;20016;-79
2021/06/26 06:12:20;;;;;;;16.90;11.40;;;;;;;21.31;48.44;101581.13;6153289;23;20324;-80
2021/06/26 06:14:46;;;;;;;13.27;11.73;;;;;;;21.30;47.52;101582.13;6153801;23;20497;-80
2021/06/26 06:17:11;;;;;;;15.70;11.10;;;;;;;21.33;47.66;101585.38;6153773;23;20033;-79
2021/06/26 06:19:36;;;;;;;15.00;11.18;;;;;;;21.20;47.46;101587.88;6153062;23;20430;-80
2021/06/26 06:22:08;;;;;;;16.15;11.65;;;;;;;21.22;47.39;101587.72;6153199;23;20005;-80
2021/06/26 06:24:33;;;;;;;14.43;11.65;;;;;;;21.08;47.68;101583.88;6152828;23;20017;-79
2021/06/26 06:26:58;;;;;;;19.92;12.07;;;;;;;21.04;48.14;101588.88;6126767;23;20037;-80
2021/06/26 06:29:24;;;;;;;19.17;13.88;;;;;;;20.78;47.33;101599.34;6153142;23;20338;-80
2021/06/26 06:31:49;;;;;;;17.67;13.25;;;;;;;20.74;47.69;101587.91;6153536;23;20009;-80
2021/06/26 06:34:14;;;;;;;21.92;13.30;;;;;;;20.69;47.99;101594.97;6153192;23;20222;-79
2021/06/26 06:36:40;;;;;;;14.00;11.73;;;;;;;20.65;48.46;101600.78;6152665;23;20037;-80
2021/06/26 06:39:05;;;;;;;15.77;12.77;;;;;;;20.61;47.92;101609.53;6126766;23;20441;-80
2021/06/26 06:41:30;;;;;;;16.85;12.27;;;;;;;20.61;48.75;101604.91;6153300;23;20006;-80
2021/06/26 06:43:55;;;;;;;19.95;13.13;;;;;;;20.64;49.15;101601.84;6152835;23;20341;-79
2021/06/26 06:46:21;;;;;;;15.13;12.68;;;;;;;20.69;46.99;101606.75;6126617;23;20006;-79
2021/06/26 06:48:46;;;;;;;16.33;13.07;;;;;;;20.74;46.60;101606.22;6152641;23;20079;-79
2021/06/26 06:51:11;;;;;;;14.60;11.77;;;;;;;20.73;46.23;101615.44;6152596;23;20460;-79
2021/06/26 06:53:37;;;;;;;15.65;12.48;;;;;;;20.79;46.31;101603.78;6152867;23;20056;-79
2021/06/26 06:56:02;;;;;;;19.85;12.23;;;;;;;20.76;45.45;101610.47;6126350;23;20469;-79
2021/06/26 06:58:28;;;;;;;17.60;12.07;;;;;;;20.76;46.24;101609.63;6152945;23;20040;-79
2021/06/26 07:00:53;;;;;;;18.30;11.90;;;;;;;20.74;47.02;101603.47;6152659;23;20009;-79
2021/06/26 07:03:18;;;;;;;24.67;13.73;;;;;;;20.80;46.56;101605.47;6126086;23;20047;-79
2021/06/26 07:05:44;;;;;;;17.55;11.45;;;;;;;20.88;47.60;101621.84;6152814;23;20032;-80
2021/06/26 07:08:09;;;;;;;16.38;12.52;;;;;;;20.85;47.49;101622.19;6152501;23;20012;-79
2021/06/26 07:10:34;;;;;;;22.23;14.85;;;;;;;20.88;46.53;101627.31;6152666;23;20093;-80
2021/06/26 07:13:00;;;;;;;19.70;15.13;;;;;;;20.94;47.42;101625.72;6152315;23;20005;-79
2021/06/26 07:15:25;;;;;;;17.35;14.95;;;;;;;21.02;47.22;101629.22;6153063;23;20488;-80
2021/06/26 07:17:51;;;;;;;17.90;14.25;;;;;;;21.08;47.99;101627.66;6152408;23;20434;-80
2021/06/26 07:20:16;;;;;;;18.13;14.85;;;;;;;21.16;48.58;101624.00;6152835;23;20398;-79
2021/06/26 07:22:41;;;;;;;20.02;14.13;;;;;;;21.25;47.68;101615.53;6152807;23;20009;-79
2021/06/26 07:25:07;;;;;;;18.33;14.80;;;;;;;21.23;48.04;101614.88;6153232;23;20022;-80
2021/06/26 07:27:33;;;;;;;23.83;16.17;;;;;;;21.41;47.30;101616.47;6153599;23;20117;-80
2021/06/26 07:29:58;;;;;;;16.92;13.93;;;;;;;21.52;47.52;101616.88;6152784;23;20032;-80
2021/06/26 07:32:24;;;;;;;17.10;14.05;;;;;;;21.76;47.80;101623.09;6152968;23;20013;-80
2021/06/26 07:34:49;;;;;;;21.42;15.85;;;;;;;21.92;47.54;101620.19;6152500;23;20005;-80
2021/06/26 07:37:14;;;;;;;18.38;14.60;;;;;;;22.06;48.56;101623.94;6152973;23;20005;-80
2021/06/26 07:39:40;;;;;;;22.77;16.70;;;;;;;22.26;48.15;101621.53;6126112;23;20088;-80
2021/06/26 07:42:06;;;;;;;19.55;15.55;;;;;;;22.37;47.15;101612.78;6152397;23;20009;-80
2021/06/26 07:44:31;;;;;;;17.65;14.18;;;;;;;22.57;47.20;101612.19;6152344;23;20002;-80
2021/06/26 07:46:57;;;;;;;17.35;14.07;;;;;;;22.65;47.16;101606.56;6126136;23;20032;-80
2021/06/26 07:49:22;;;;;;;17.60;14.45;;;;;;;22.71;46.32;101611.28;6152453;23;20120;-80
2021/06/26 07:51:47;;;;;;;17.90;15.80;;;;;;;22.76;46.06;101610.69;6152242;23;20503;-80
2021/06/26 07:54:16;;;;;;;18.02;14.65;;;;;;;22.74;46.07;101612.78;6152361;23;20006;-80
2021/06/26 07:56:43;;;;;;;21.83;15.88;;;;;;;22.76;45.80;101611.53;6152292;23;20084;-80
2021/06/26 07:59:08;;;;;;;17.77;14.38;;;;;;;22.67;46.66;101618.19;6152161;23;20012;-80
2021/06/26 08:01:33;;;;;;;18.88;15.05;;;;;;;22.65;46.93;101620.28;6125886;23;20013;-80
2021/06/26 08:03:58;;;;;;;16.45;14.63;;;;;;;22.72;46.79;101621.22;6152516;23;20485;-80
2021/06/26 08:06:24;;;;;;;20.50;14.30;;;;;;;22.79;47.71;101621.28;6152178;23;20001;-80
2021/06/26 08:08:49;;;;;;;21.60;15.02;;;;;;;22.89;47.95;101614.41;6151850;23;20012;-80
2021/06/26 08:11:14;;;;;;;16.40;13.93;;;;;;;22.99;46.55;101607.78;6152616;23;20013;-80
2021/06/26 08:13:40;;;;;;;15.63;14.13;;;;;;;23.07;46.50;101613.16;6152397;23;20005;-80
2021/06/26 08:16:05;;;;;;;15.60;13.85;;;;;;;23.12;45.87;101622.50;6152494;23;20031;-80
2021/06/26 08:18:31;;;;;;;16.98;14.70;;;;;;;23.15;45.81;101619.34;6152796;23;20012;-80
2021/06/26 08:20:56;;;;;;;20.77;15.55;;;;;;;23.05;45.41;101616.09;6154969;23;20010;-80
2021/06/26 08:23:21;;;;;;;15.27;13.30;;;;;;;23.07;45.52;101618.63;6154593;23;20025;-80
2021/06/26 08:25:47;;;;;;;17.02;14.80;;;;;;;23.21;45.10;101619.63;6152704;23;20024;-80
2021/06/26 08:28:12;;;;;;;15.98;13.32;;;;;;;23.35;45.89;101627.75;6127045;23;20010;-80
2021/06/26 08:30:37;;;;;;;16.55;13.63;;;;;;;23.19;45.56;101624.44;6152316;23;20032;-80
2021/06/26 08:33:03;;;;;;;19.20;15.52;;;;;;;23.06;45.80;101616.94;6152488;23;20005;-80
2021/06/26 08:35:28;;;;;;;20.27;14.43;;;;;;;22.90;46.53;101629.84;6152415;23;20391;-80
2021/06/26 08:37:54;;;;;;;19.08;14.63;;;;;;;22.85;46.95;101624.09;6154666;23;20060;-80
2021/06/26 08:40:20;;;;;;;17.73;15.80;;;;;;;22.78;46.51;101617.69;6128401;23;20001;-80
2021/06/26 08:42:45;;;;;;;17.85;15.68;;;;;;;22.68;46.79;101619.88;6154308;23;20361;-80
2021/06/26 08:45:16;;;;;;;19.40;15.30;;;;;;;22.82;46.84;101618.16;6152773;23;20006;-80
2021/06/26 08:47:42;;;;;;;18.05;16.05;;;;;;;22.78;46.63;101619.59;6153022;23;20005;-80
2021/06/26 08:50:08;;;;;;;19.63;16.73;;;;;;;22.64;47.21;101616.69;6154763;23;20017;-80
2021/06/26 08:52:34;;;;;;;22.05;15.25;;;;;;;22.65;47.82;101620.28;6156071;23;20012;-80
2021/06/26 08:55:00;;;;;;;23.05;19.05;;;;;;;22.69;47.66;101622.44;6153763;23;20006;-80
2021/06/26 08:57:30;;;;;;;22.58;18.60;;;;;;;22.85;47.19;101623.25;6128344;23;20446;-80
2021/06/26 08:59:58;;;;;;;26.08;18.10;;;;;;;22.98;48.59;101626.16;6154535;23;20416;-80
2021/06/26 09:02:24;;;;;;;18.52;16.30;;;;;;;23.10;47.63;101630.06;6154886;23;20036;-80
2021/06/26 09:04:49;;;;;;;21.50;17.50;;;;;;;23.19;46.63;101625.28;6154478;23;20009;-80
2021/06/26 09:07:29;;;;;;;21.73;18.70;;;;;;;23.36;47.13;101637.69;6154488;23;20009;-80
2021/06/26 09:09:57;;;;;;;24.70;20.00;;;;;;;23.43;46.53;101625.91;6154396;23;20016;-80
2021/06/26 09:12:26;;;;;;;23.63;19.83;;;;;;;23.54;46.64;101630.84;6154660;23;20327;-80
2021/06/26 09:14:53;;;;;;;23.10;19.45;;;;;;;23.25;47.43;101638.22;6155411;23;20457;-79
2021/06/26 09:17:29;;;;;;;27.90;21.60;;;;;;;23.35;48.64;101626.91;6127965;23;20378;-80
2021/06/26 09:19:57;;;;;;;24.58;20.10;;;;;;;23.41;47.29;101631.59;6127488;23;20009;-80
2021/06/26 09:22:23;;;;;;;22.35;20.00;;;;;;;23.36;47.66;101629.47;6127234;23;20068;-80
2021/06/26 09:24:51;;;;;;;23.27;20.17;;;;;;;23.36;47.55;101634.94;6153401;23;20016;-80
2021/06/26 09:27:20;;;;;;;20.55;18.33;;;;;;;23.35;48.09;101640.63;6154071;23;20021;-80
2021/06/26 09:29:49;;;;;;;23.92;19.92;;;;;;;23.32;47.79;101646.50;6154624;23;20338;-80
2021/06/26 09:32:21;;;;;;;31.33;26.67;;;;;;;23.28;48.20;101643.31;6126938;23;20006;-80
2021/06/26 09:34:47;;;;;;;26.45;23.08;;;;;;;23.24;48.11;101642.03;6154165;23;20010;-80
2021/06/26 09:37:17;;;;;;;25.02;22.42;;;;;;;23.17;48.28;101631.00;6153574;23;20085;-80
2021/06/26 09:39:44;;;;;;;22.92;20.33;;;;;;;23.16;48.75;101633.91;6127101;23;20449;-80
2021/06/26 09:42:25;;;;;;;24.05;21.05;;;;;;;23.14;48.35;101638.75;6153785;23;20009;-80
2021/06/26 09:44:54;;;;;;;27.35;23.10;;;;;;;23.02;48.29;101646.69;6153478;23;20017;-80
2021/06/26 09:47:37;;;;;;;30.17;21.15;;;;;;;22.73;48.91;101644.84;6128616;23;20346;-80
2021/06/26 09:50:12;;;;;;;26.48;21.13;;;;;;;22.71;48.86;101652.41;6153527;23;20059;-80
2021/06/26 09:52:55;;;;;;;28.77;22.92;;;;;;;22.29;49.14;101658.66;6127546;23;20101;-80
2021/06/26 09:55:35;;;;;;;31.38;23.85;;;;;;;22.38;49.43;101657.50;6128415;23;20001;-80
2021/06/26 09:58:21;;;;;;;28.65;23.77;;;;;;;22.40;49.92;101653.50;6155353;23;20512;-80
2021/06/26 10:00:47;;;;;;;27.58;22.30;;;;;;;22.51;49.54;101652.19;6152347;23;20045;-80
2021/06/26 10:03:17;;;;;;;31.33;26.42;;;;;;;22.39;49.54;101648.25;6153461;23;20012;-80
2021/06/26 10:05:45;;;;;;;29.38;25.55;;;;;;;22.39;49.35;101649.09;6153740;23;19998;-80
2021/06/26 10:08:12;;;;;;;29.23;24.33;;;;;;;22.42;49.59;101653.34;6153534;23;20006;-80
2021/06/26 10:10:37;;;;;;;30.25;25.25;;;;;;;22.43;49.78;101652.28;6153461;23;20016;-80
2021/06/26 10:13:03;;;;;;;33.45;25.52;;;;;;;22.58;48.95;101657.75;6127265;23;20342;-80
2021/06/26 10:15:31;;;;;;;34.95;25.48;;;;;;;22.51;49.26;101652.19;6153838;23;20009;-80
2021/06/26 10:17:56;;;;;;;31.45;25.45;;;;;;;22.37;49.39;101655.78;6153591;23;20009;-80
2021/06/26 10:20:24;;;;;;;30.40;25.02;;;;;;;22.44;49.51;101651.25;6154027;23;20409;-80
2021/06/26 10:22:58;;;;;;;31.92;24.40;;;;;;;22.66;49.42;101653.00;6153462;23;20012;-80
2021/06/26 10:25:35;;;;;;;27.20;23.13;;;;;;;22.75;49.13;101650.16;6153374;23;20405;-80
2021/06/26 10:28:08;;;;;;;30.58;25.35;;;;;;;22.54;49.17;101649.06;6153937;23;20389;-80
2021/06/26 10:30:35;;;;;;;33.10;25.73;;;;;;;22.59;49.15;101643.84;6153539;23;20005;-80
2021/06/26 10:33:04;;;;;;;29.02;24.23;;;;;;;22.74;49.11;101649.28;6153931;23;20009;-80
2021/06/26 10:35:32;;;;;;;35.13;26.92;;;;;;;22.56;48.96;101641.50;6153025;23;20006;-80
2021/06/26 10:38:04;;;;;;;30.35;25.67;;;;;;;22.69;48.79;101638.06;6127086;23;20072;-80
2021/06/26 10:40:44;;;;;;;32.20;25.45;;;;;;;22.76;48.13;101643.63;6153222;23;20016;-80
2021/06/26 10:43:31;;;;;;;28.10;23.10;;;;;;;22.69;48.23;101649.03;6127028;23;20016;-80
2021/06/26 10:46:15;;;;;;;25.98;22.92;;;;;;;22.92;48.62;101641.44;6127145;23;20400;-80
2021/06/26 10:48:42;;;;;;;31.63;24.25;;;;;;;23.00;47.84;101640.53;6153213;23;20062;-80
2021/06/26 10:51:10;;;;;;;29.45;22.25;;;;;;;23.11;48.96;101641.88;6153616;23;20342;-80
2021/06/26 10:53:38;;;;;;;27.52;23.20;;;;;;;23.37;49.05;101649.50;6126569;23;20100;-80
2021/06/26 10:56:09;;;;;;;27.85;23.38;;;;;;;23.57;47.26;101642.28;6153069;23;20016;-80
2021/06/26 10:58:39;;;;;;;28.83;24.03;;;;;;;23.70;46.11;101637.97;6153673;23;20005;-80
2021/06/26 11:01:16;;;;;;;26.92;23.33;;;;;;;23.82;46.16;101641.88;6155893;23;20009;-80
2021/06/26 11:03:43;;;;;;;27.67;22.42;;;;;;;23.97;46.23;101645.34;6127048;23;20019;-80
2021/06/26 11:06:19;;;;;;;25.73;22.00;;;;;;;24.17;46.79;101639.94;6152774;23;20006;-80
2021/06/26 11:08:59;;;;;;;27.80;21.98;;;;;;;24.48;46.87;101646.88;6126341;23;20088;-80
2021/06/26 11:11:49;;;;;;;30.45;22.83;;;;;;;24.56;45.41;101643.97;6126961;23;20411;-80